createdAt,value
2018-05-06T00:01:13.909Z,15.04
2018-05-06T00:06:05.046Z,14.97
2018-05-06T00:10:56.072Z,14.92
2018-05-06T00:15:47.148Z,14.83
2018-05-06T00:20:38.921Z,14.80
2018-05-06T00:25:30.016Z,14.73
2018-05-06T00:30:21.788Z,14.63
2018-05-06T00:35:12.820Z,14.58
2018-05-06T00:40:03.885Z,14.54
2018-05-06T00:44:55.676Z,14.48
2018-05-06T00:49:46.713Z,14.43
2018-05-06T00:54:42.772Z,14.40
2018-05-06T00:59:33.821Z,14.34
2018-05-06T01:04:25.600Z,14.28
2018-05-06T01:09:16.623Z,14.20
2018-05-06T01:14:07.639Z,14.13
2018-05-06T01:18:58.730Z,14.05
2018-05-06T01:23:50.538Z,13.98
2018-05-06T01:28:41.597Z,13.91
2018-05-06T01:33:32.761Z,13.81
2018-05-06T01:38:23.829Z,13.76
2018-05-06T01:43:14.907Z,13.71
2018-05-06T01:48:05.962Z,13.66
2018-05-06T01:52:57.036Z,13.63
2018-05-06T01:57:48.067Z,13.55
2018-05-06T02:02:39.194Z,13.50
2018-05-06T02:07:30.216Z,13.49
2018-05-06T02:12:21.242Z,13.42
2018-05-06T02:17:12.283Z,13.40
2018-05-06T02:22:03.314Z,13.37
2018-05-06T02:26:54.370Z,13.33
2018-05-06T02:31:46.147Z,13.28
2018-05-06T02:36:37.185Z,13.24
2018-05-06T02:41:28.223Z,13.20
2018-05-06T02:46:19.236Z,13.15
2018-05-06T02:51:10.270Z,13.09
2018-05-06T02:56:01.321Z,13.03
2018-05-06T03:00:52.403Z,12.92
2018-05-06T03:05:43.411Z,12.85
2018-05-06T03:10:34.489Z,12.85
2018-05-06T03:15:25.487Z,12.91
2018-05-06T03:20:16.513Z,12.84
2018-05-06T03:25:07.566Z,12.77
2018-05-06T03:29:59.378Z,12.71
2018-05-06T03:34:50.405Z,12.59
2018-05-06T03:39:41.454Z,12.53
2018-05-06T03:44:33.265Z,12.51
2018-05-06T03:49:24.361Z,12.46
2018-05-06T03:54:15.382Z,12.43
2018-05-06T03:59:25.212Z,12.42
2018-05-06T04:04:16.986Z,12.39
2018-05-06T04:09:08.007Z,12.36
2018-05-06T04:13:59.045Z,12.33
2018-05-06T04:18:50.067Z,12.36
2018-05-06T04:23:41.079Z,12.34
2018-05-06T04:28:32.113Z,12.35
2018-05-06T04:33:24.692Z,12.35
2018-05-06T04:38:15.703Z,12.39
2018-05-06T04:43:06.730Z,12.45
2018-05-06T04:47:57.744Z,12.48
2018-05-06T04:52:48.777Z,12.52
2018-05-06T04:57:39.847Z,12.57
2018-05-06T05:02:31.605Z,12.60
2018-05-06T05:07:22.664Z,12.62
2018-05-06T05:12:13.685Z,12.70
2018-05-06T05:17:04.777Z,12.73
2018-05-06T05:21:55.840Z,12.77
2018-05-06T05:26:46.849Z,12.84
2018-05-06T05:31:37.879Z,12.87
2018-05-06T05:36:28.892Z,12.94
2018-05-06T05:41:19.911Z,13.01
2018-05-06T05:46:10.970Z,13.10
2018-05-06T05:51:02.010Z,13.18
2018-05-06T05:55:53.780Z,13.29
2018-05-06T06:00:44.885Z,13.37
2018-05-06T06:05:36.661Z,13.46
2018-05-06T06:10:27.681Z,13.50
2018-05-06T06:15:18.730Z,13.63
2018-05-06T06:20:09.756Z,13.73
2018-05-06T06:25:00.944Z,13.83
2018-05-06T06:29:51.967Z,13.94
2018-05-06T06:34:42.994Z,14.05
2018-05-06T06:39:34.066Z,14.17
2018-05-06T06:44:25.111Z,14.30
2018-05-06T06:49:16.893Z,14.46
2018-05-06T06:54:07.927Z,14.70
2018-05-06T06:58:58.939Z,15.35
2018-05-06T07:03:50.010Z,17.06
2018-05-06T07:08:41.784Z,19.23
2018-05-06T07:13:32.810Z,20.99
2018-05-06T07:18:23.815Z,22.79
2018-05-06T07:23:14.903Z,24.27
2018-05-06T07:28:05.978Z,25.26
2018-05-06T07:32:57.046Z,25.87
2018-05-06T07:37:48.065Z,26.28
2018-05-06T07:42:39.102Z,26.17
2018-05-06T07:47:30.149Z,26.39
2018-05-06T07:52:21.222Z,26.59
2018-05-06T07:57:12.285Z,26.58
2018-05-06T08:02:04.103Z,26.66
2018-05-06T08:06:55.103Z,26.24
2018-05-06T08:11:46.230Z,26.21
2018-05-06T08:16:37.309Z,25.82
2018-05-06T08:21:28.392Z,25.95
2018-05-06T08:26:19.415Z,25.66
2018-05-06T08:31:10.580Z,25.81
2018-05-06T08:36:01.616Z,25.76
2018-05-06T08:40:54.013Z,25.88
2018-05-06T08:45:45.126Z,25.76
2018-05-06T08:50:36.111Z,25.72
2018-05-06T08:55:27.123Z,25.63
2018-05-06T09:00:18.892Z,25.72
2018-05-06T09:05:09.948Z,25.70
2018-05-06T09:10:01.098Z,25.70
2018-05-06T09:14:52.115Z,25.72
2018-05-06T09:19:43.218Z,25.78
2018-05-06T09:24:34.939Z,25.90
2018-05-06T09:29:25.936Z,25.80
2018-05-06T09:34:17.009Z,25.57
2018-05-06T09:39:08.129Z,25.63
2018-05-06T09:43:59.204Z,25.55
2018-05-06T09:48:50.275Z,25.94
2018-05-06T09:53:41.357Z,26.17
2018-05-06T09:58:32.466Z,26.11
2018-05-06T10:03:24.366Z,26.07
2018-05-06T10:08:15.502Z,26.32
2018-05-06T10:13:06.513Z,26.66
2018-05-06T10:17:57.537Z,26.88
2018-05-06T10:22:48.553Z,26.82
2018-05-06T10:27:39.609Z,26.76
2018-05-06T10:32:31.359Z,26.94
2018-05-06T10:37:23.106Z,26.91
2018-05-06T10:42:14.916Z,26.94
2018-05-06T10:47:05.909Z,26.92
2018-05-06T10:51:56.929Z,26.48
2018-05-06T10:56:47.994Z,26.32
2018-05-06T11:01:39.030Z,26.75
2018-05-06T11:06:30.806Z,27.07
2018-05-06T11:11:21.920Z,27.50
2018-05-06T11:16:12.967Z,27.72
2018-05-06T11:21:03.975Z,27.90
2018-05-06T11:25:55.007Z,27.90
2018-05-06T11:30:46.023Z,27.92
2018-05-06T11:35:37.080Z,27.89
2018-05-06T11:40:28.108Z,28.07
2018-05-06T11:45:19.161Z,28.18
2018-05-06T11:50:10.983Z,28.38
2018-05-06T11:55:02.015Z,28.33
2018-05-06T11:59:53.773Z,28.30
2018-05-06T12:04:45.553Z,28.00
2018-05-06T12:09:36.661Z,28.11
2018-05-06T12:14:27.698Z,28.12
2018-05-06T12:19:18.727Z,28.08
2018-05-06T12:24:09.789Z,27.93
2018-05-06T12:29:00.817Z,28.19
2018-05-06T12:33:52.572Z,28.23
2018-05-06T12:38:44.363Z,28.11
2018-05-06T12:43:35.389Z,27.86
2018-05-06T12:48:26.785Z,27.91
2018-05-06T12:53:17.812Z,28.03
2018-05-06T12:58:08.845Z,28.03
2018-05-06T13:02:59.895Z,28.03
2018-05-06T13:07:50.926Z,27.92
2018-05-06T13:12:41.943Z,27.60
2018-05-06T13:17:32.960Z,27.53
2018-05-06T13:22:24.008Z,27.67
2018-05-06T13:27:15.813Z,27.61
2018-05-06T13:32:06.865Z,27.70
2018-05-06T13:36:57.900Z,27.68
2018-05-06T13:41:49.650Z,27.69
2018-05-06T13:46:41.480Z,27.53
2018-05-06T13:51:33.263Z,27.69
2018-05-06T13:56:24.405Z,27.65
2018-05-06T14:01:15.429Z,27.58
2018-05-06T14:06:06.489Z,27.70
2018-05-06T14:10:58.251Z,27.60
2018-05-06T14:15:49.335Z,27.73
2018-05-06T14:20:40.442Z,27.73
2018-05-06T14:25:31.553Z,27.49
2018-05-06T14:30:22.584Z,27.38
2018-05-06T14:35:13.596Z,27.41
2018-05-06T14:40:04.627Z,27.41
2018-05-06T14:44:55.648Z,27.44
2018-05-06T14:49:46.652Z,27.22
2018-05-06T14:54:37.664Z,27.22
2018-05-06T14:59:28.700Z,27.26
2018-05-06T15:04:19.757Z,27.25
2018-05-06T15:09:10.781Z,27.24
2018-05-06T15:14:01.812Z,27.36
2018-05-06T15:18:52.909Z,27.32
2018-05-06T15:23:43.949Z,27.16
2018-05-06T15:28:35.002Z,27.00
2018-05-06T15:33:26.751Z,26.93
2018-05-06T15:38:18.504Z,26.83
2018-05-06T15:43:09.522Z,26.75
2018-05-06T15:48:00.549Z,26.70
2018-05-06T15:52:51.603Z,26.66
2018-05-06T15:57:42.645Z,26.56
2018-05-06T16:08:03.076Z,26.44
2018-05-06T16:12:54.097Z,26.31
2018-05-06T16:17:45.207Z,26.24
2018-05-06T16:22:36.262Z,26.12
2018-05-06T16:27:27.330Z,26.00
2018-05-06T16:32:19.099Z,26.00
2018-05-06T16:37:10.099Z,25.91
2018-05-06T16:42:01.141Z,25.90
2018-05-06T16:46:52.197Z,25.88
2018-05-06T16:51:43.223Z,25.79
2018-05-06T16:56:34.321Z,25.71
2018-05-06T17:01:25.366Z,25.61
2018-05-06T17:06:16.402Z,25.41
2018-05-06T17:11:07.464Z,25.36
2018-05-06T17:15:58.508Z,25.23
2018-05-06T17:20:49.536Z,25.09
2018-05-06T17:25:40.555Z,25.07
2018-05-06T17:30:31.569Z,25.05
2018-05-06T17:35:22.600Z,24.93
2018-05-06T17:40:13.619Z,24.85
2018-05-06T17:45:04.754Z,24.74
2018-05-06T17:49:55.858Z,24.67
2018-05-06T17:54:46.967Z,24.62
2018-05-06T17:59:38.759Z,24.54
2018-05-06T18:04:30.533Z,24.39
2018-05-06T18:09:22.953Z,24.26
2018-05-06T18:14:14.007Z,24.16
2018-05-06T18:19:05.861Z,24.09
2018-05-06T18:23:57.690Z,24.00
2018-05-06T18:28:49.497Z,23.89
2018-05-06T18:33:40.552Z,23.75
2018-05-06T18:38:31.629Z,23.60
2018-05-06T18:43:22.665Z,23.51
2018-05-06T18:48:13.746Z,23.36
2018-05-06T18:53:05.525Z,23.24
2018-05-06T18:57:56.559Z,23.13
2018-05-06T19:02:47.724Z,22.98
2018-05-06T19:07:38.731Z,22.83
2018-05-06T19:12:29.916Z,22.63
2018-05-06T19:17:20.993Z,22.44
2018-05-06T19:22:12.774Z,22.28
2018-05-06T19:27:03.781Z,22.14
2018-05-06T19:31:54.842Z,22.04
2018-05-06T19:36:45.865Z,21.95
2018-05-06T19:41:36.889Z,21.85
2018-05-06T19:46:27.932Z,21.77
2018-05-06T19:51:18.954Z,21.55
2018-05-06T19:56:09.995Z,21.36
2018-05-06T20:01:01.775Z,21.20
2018-05-06T20:05:52.816Z,21.10
2018-05-06T20:10:43.831Z,20.97
2018-05-06T20:15:34.941Z,20.89
2018-05-06T20:20:26.059Z,20.84
2018-05-06T20:25:17.081Z,20.73
2018-05-06T20:30:08.134Z,20.62
2018-05-06T20:34:59.161Z,20.49
2018-05-06T20:39:50.186Z,20.33
2018-05-06T20:44:41.209Z,20.22
2018-05-06T20:49:32.319Z,20.09
2018-05-06T20:54:23.369Z,20.01
2018-05-06T20:59:14.417Z,19.96
2018-05-06T21:04:05.474Z,19.81
2018-05-06T21:08:56.518Z,19.70
2018-05-06T21:13:47.566Z,19.59
2018-05-06T21:18:38.604Z,19.48
2018-05-06T21:23:30.455Z,19.40
2018-05-06T21:28:22.260Z,19.33
2018-05-06T21:33:13.295Z,19.32
2018-05-06T21:38:04.442Z,19.35
2018-05-06T21:42:56.206Z,19.25
2018-05-06T21:47:47.282Z,19.16
2018-05-06T21:52:38.343Z,19.04
2018-05-06T21:57:29.411Z,19.00
2018-05-06T22:02:20.447Z,18.94
2018-05-06T22:07:11.477Z,18.89
2018-05-06T22:12:02.525Z,18.80
2018-05-06T22:16:54.318Z,18.68
2018-05-06T22:21:45.356Z,18.62
2018-05-06T22:26:36.381Z,18.50
2018-05-06T22:31:27.460Z,18.36
2018-05-06T22:36:18.481Z,18.24
2018-05-06T22:41:09.604Z,18.18
2018-05-06T22:46:00.731Z,18.10
2018-05-06T22:50:51.763Z,18.00
2018-05-06T22:55:42.816Z,17.85
2018-05-06T23:00:33.881Z,17.74
2018-05-06T23:05:24.926Z,17.68
2018-05-06T23:10:15.958Z,17.61
2018-05-06T23:15:06.970Z,17.55
2018-05-06T23:19:58.033Z,17.52
2018-05-06T23:24:49.096Z,17.47
2018-05-06T23:29:40.851Z,17.33
2018-05-06T23:34:31.871Z,17.21
2018-05-06T23:39:22.990Z,17.13
2018-05-06T23:44:14.797Z,17.04
2018-05-06T23:49:05.842Z,16.95
2018-05-06T23:53:57.646Z,16.83
2018-05-06T23:58:48.691Z,16.74
